Time;durP1;ratioP1;P1;durP2;ratioP2;P2;SDS_P1;SDS_P2;PMS_P1;PMS_P2;Temp;Humidity;BMP_temperature;BMP_pressure;BME280_temperature;BME280_humidity;BME280_pressure;Samples;Min_cycle;Max_cycle;Signal;HPM_P1;HPM_P2
2023/07/07 00:01:03;;;;;;;0.10;0.10;;;9.40;99.90;;;;;;5082416;28;20466;-71
2023/07/07 00:03:29;;;;;;;0.00;0.00;;;9.40;99.90;;;;;;5082624;28;20055;-72
2023/07/07 00:05:55;;;;;;;0.05;0.05;;;9.40;99.90;;;;;;5082467;28;20040;-72
2023/07/07 00:08:20;;;;;;;0.00;0.00;;;9.30;99.90;;;;;;5083062;28;20047;-72
2023/07/07 00:10:47;;;;;;;0.30;0.30;;;9.30;59.50;;;;;;5083022;28;20044;-75
2023/07/07 00:13:14;;;;;;;0.10;0.10;;;9.30;99.90;;;;;;5082833;28;20055;-72
2023/07/07 00:15:44;;;;;;;0.00;0.00;;;9.30;1.00;;;;;;5082791;28;20548;-73
2023/07/07 00:18:12;;;;;;;0.13;0.13;;;9.30;99.90;;;;;;5082330;28;20044;-73
2023/07/07 00:20:37;;;;;;;0.52;0.52;;;9.40;99.90;;;;;;5082688;28;20050;-73
2023/07/07 00:23:03;;;;;;;0.47;0.47;;;9.40;1.00;;;;;;5082531;28;20040;-73
2023/07/07 00:25:29;;;;;;;0.00;0.00;;;9.40;99.90;;;;;;5082828;28;20127;-70
2023/07/07 00:27:54;;;;;;;0.00;0.00;;;9.40;99.90;;;;;;5082753;28;20044;-70
2023/07/07 00:30:20;;;;;;;0.00;0.00;;;9.40;99.90;;;;;;5082419;28;20044;-72
2023/07/07 00:32:46;;;;;;;0.28;0.22;;;9.40;99.90;;;;;;5082382;28;20075;-72
2023/07/07 00:35:11;;;;;;;0.20;0.20;;;9.30;99.90;;;;;;5082425;28;20040;-73
2023/07/07 00:37:37;;;;;;;0.00;0.00;;;9.20;99.90;;;;;;5082315;28;20040;-73
2023/07/07 00:40:03;;;;;;;0.10;0.10;;;9.20;99.90;;;;;;5082171;28;20398;-73
2023/07/07 00:42:30;;;;;;;0.00;0.00;;;9.20;99.90;;;;;;5082070;28;20052;-73
2023/07/07 00:45:05;;;;;;;0.00;0.00;;;9.20;14.10;;;;;;5081507;28;20473;-71
2023/07/07 00:47:33;;;;;;;1.20;0.73;;;9.20;1.00;;;;;;5081706;28;20529;-71
2023/07/07 00:49:59;;;;;;;0.00;0.00;;;9.20;1.00;;;;;;5082342;28;20039;-71
2023/07/07 00:52:25;;;;;;;0.00;0.00;;;9.10;99.90;;;;;;5082367;28;20402;-71
2023/07/07 00:54:50;;;;;;;0.17;0.17;;;9.10;99.90;;;;;;5082303;28;20597;-71
2023/07/07 00:57:16;;;;;;;0.00;0.00;;;9.00;99.90;;;;;;5082120;28;20044;-71
2023/07/07 00:59:45;;;;;;;0.25;0.25;;;8.90;1.00;;;;;;5082232;28;20044;-72
2023/07/07 01:02:24;;;;;;;0.25;0.05;;;8.90;1.00;;;;;;5082391;28;20459;-72
2023/07/07 01:04:53;;;;;;;0.00;0.00;;;8.80;99.90;;;;;;5084126;28;20035;-72
2023/07/07 01:07:28;;;;;;;0.13;0.13;;;8.80;99.90;;;;;;5086061;28;20055;-72
2023/07/07 01:09:53;;;;;;;0.00;0.00;;;8.90;99.90;;;;;;5086300;28;20091;-72
2023/07/07 01:12:19;;;;;;;0.00;0.00;;;8.90;99.90;;;;;;5084696;28;20075;-72
2023/07/07 01:14:47;;;;;;;0.25;0.15;;;9.00;99.90;;;;;;5085570;28;20079;-72
2023/07/07 01:17:28;;;;;;;0.00;0.00;;;8.90;99.90;;;;;;5085938;28;20071;-72
2023/07/07 01:20:00;;;;;;;0.00;0.00;;;8.90;99.90;;;;;;5085629;28;20452;-72
2023/07/07 01:23:06;;;;;;;0.00;0.00;;;8.90;99.90;;;;;;5085183;28;20048;-72
2023/07/07 01:25:57;;;;;;;0.30;0.25;;;8.80;99.90;;;;;;5085732;28;20439;-72
2023/07/07 01:28:31;;;;;;;0.10;0.10;;;8.80;99.90;;;;;;5085398;28;20047;-72
2023/07/07 01:31:07;;;;;;;0.43;0.10;;;8.80;1.00;;;;;;5085656;28;20075;-72
2023/07/07 01:33:33;;;;;;;0.30;0.28;;;8.80;1.00;;;;;;5085399;28;20051;-72
2023/07/07 01:35:59;;;;;;;0.00;0.00;;;8.70;21.70;;;;;;5084856;28;20044;-71
2023/07/07 01:38:33;;;;;;;0.00;0.00;;;8.60;99.90;;;;;;5085651;28;20125;-71
2023/07/07 01:41:17;;;;;;;0.00;0.00;;;8.60;99.90;;;;;;5084894;28;20048;-72
2023/07/07 01:44:02;;;;;;;0.00;0.00;;;8.60;99.90;;;;;;5084709;28;20062;-72
2023/07/07 01:46:38;;;;;;;0.00;0.00;;;8.60;99.90;;;;;;5084696;28;20059;-72
2023/07/07 01:49:42;;;;;;;0.00;0.00;;;8.60;99.90;;;;;;5081487;28;20414;-71
2023/07/07 01:52:18;;;;;;;0.00;0.00;;;8.60;99.90;;;;;;5076206;28;20064;-72
2023/07/07 01:54:52;;;;;;;0.25;0.20;;;8.50;99.90;;;;;;5084744;28;20048;-72
2023/07/07 01:57:20;;;;;;;0.10;0.10;;;8.50;99.90;;;;;;5081530;28;20418;-71
2023/07/07 01:59:46;;;;;;;0.10;0.10;;;8.60;99.90;;;;;;5080586;28;20068;-72
2023/07/07 02:02:14;;;;;;;0.00;0.00;;;8.50;99.90;;;;;;5071207;28;20047;-72
2023/07/07 02:04:39;;;;;;;0.00;0.00;;;8.60;99.90;;;;;;5078784;28;20455;-72
2023/07/07 02:07:05;;;;;;;0.00;0.00;;;8.60;1.00;;;;;;5084316;28;20040;-72
2023/07/07 02:09:32;;;;;;;0.00;0.00;;;8.50;1.00;;;;;;5084887;28;20044;-72
2023/07/07 02:11:58;;;;;;;0.00;0.00;;;8.40;1.00;;;;;;5084767;28;20048;-72
2023/07/07 02:14:23;;;;;;;0.00;0.00;;;8.40;1.00;;;;;;5084298;28;20055;-71
2023/07/07 02:16:49;;;;;;;0.08;0.08;;;8.40;1.00;;;;;;5083608;28;20040;-72
2023/07/07 02:19:16;;;;;;;0.00;0.00;;;8.50;99.90;;;;;;5084962;28;20128;-72
2023/07/07 02:21:42;;;;;;;0.08;0.00;;;8.40;99.90;;;;;;5083084;28;20540;-71
2023/07/07 02:24:07;;;;;;;0.00;0.00;;;8.30;99.90;;;;;;5084317;28;20119;-71
2023/07/07 02:26:34;;;;;;;0.00;0.00;;;8.30;99.90;;;;;;5084556;28;20055;-71
2023/07/07 02:28:59;;;;;;;1.20;0.45;;;8.40;99.90;;;;;;5084482;28;20040;-71
2023/07/07 02:31:25;;;;;;;0.35;0.35;;;8.40;99.90;;;;;;5084376;28;20048;-72
2023/07/07 02:33:52;;;;;;;0.00;0.00;;;8.50;90.60;;;;;;5084467;28;20048;-71
2023/07/07 02:36:18;;;;;;;0.00;0.00;;;8.60;99.90;;;;;;5083063;28;20062;-71
2023/07/07 02:38:45;;;;;;;0.00;0.00;;;8.70;82.20;;;;;;5083653;28;20485;-72
2023/07/07 02:41:11;;;;;;;0.73;0.43;;;8.80;1.00;;;;;;5084031;28;20464;-71
2023/07/07 02:43:36;;;;;;;0.38;0.38;;;8.90;1.00;;;;;;5083870;28;20062;-71
2023/07/07 02:46:02;;;;;;;0.08;0.03;;;9.00;1.00;;;;;;5083962;28;20380;-71
2023/07/07 02:48:28;;;;;;;0.05;0.05;;;9.10;1.00;;;;;;5083750;28;20115;-71
2023/07/07 02:50:58;;;;;;;0.43;0.35;;;9.10;1.00;;;;;;5084102;28;20044;-72
2023/07/07 02:53:36;;;;;;;0.35;0.30;;;9.20;1.00;;;;;;5083398;28;20054;-72
2023/07/07 02:56:03;;;;;;;0.13;0.13;;;9.20;1.00;;;;;;5083714;28;20052;-72
2023/07/07 02:58:29;;;;;;;0.20;0.15;;;9.20;1.00;;;;;;5083631;28;20044;-71
2023/07/07 03:01:09;;;;;;;0.00;0.00;;;9.30;1.00;;;;;;5083719;28;20399;-71
2023/07/07 03:03:39;;;;;;;0.03;0.03;;;9.30;99.90;;;;;;5083604;28;20431;-72
2023/07/07 03:06:08;;;;;;;0.00;0.00;;;9.30;99.90;;;;;;5083688;28;20067;-72
2023/07/07 03:08:33;;;;;;;0.80;0.80;;;9.40;99.90;;;;;;5083083;28;20126;-72
2023/07/07 03:11:04;;;;;;;0.17;0.17;;;9.40;99.90;;;;;;5083489;28;20549;-72
2023/07/07 03:13:29;;;;;;;0.00;0.00;;;9.50;99.90;;;;;;5083700;28;20044;-71
2023/07/07 03:15:55;;;;;;;0.00;0.00;;;9.50;99.90;;;;;;5084061;28;20803;-71
2023/07/07 03:18:20;;;;;;;1.30;0.60;;;9.50;99.90;;;;;;5083413;28;20174;-71
2023/07/07 03:20:47;;;;;;;1.85;0.63;;;9.60;99.90;;;;;;5083476;28;20044;-72
2023/07/07 03:23:13;;;;;;;0.85;0.52;;;9.70;99.90;;;;;;5083538;28;20036;-71
2023/07/07 03:25:39;;;;;;;0.30;0.30;;;9.70;99.90;;;;;;5083778;28;20066;-72
2023/07/07 03:28:05;;;;;;;1.17;0.88;;;9.80;1.00;;;;;;5082675;28;20040;-71
2023/07/07 03:30:30;;;;;;;0.40;0.40;;;9.80;99.90;;;;;;5083304;28;20040;-71
2023/07/07 03:32:56;;;;;;;0.10;0.10;;;9.90;1.00;;;;;;5083403;28;20063;-71
2023/07/07 03:35:22;;;;;;;0.03;0.03;;;10.00;1.00;;;;;;5083095;28;20039;-72
2023/07/07 03:37:48;;;;;;;0.25;0.15;;;11.30;1.00;;;;;;5083053;28;20059;-71
2023/07/07 03:40:13;;;;;;;0.98;0.45;;;10.10;47.80;;;;;;5082656;28;20079;-71
2023/07/07 03:42:39;;;;;;;0.40;0.40;;;10.10;10.30;;;;;;5082536;28;20065;-71
2023/07/07 03:45:05;;;;;;;0.60;0.40;;;10.20;35.60;;;;;;5082846;28;20046;-71
2023/07/07 03:47:31;;;;;;;0.22;0.22;;;10.20;25.40;;;;;;5082635;28;20388;-71
2023/07/07 03:49:57;;;;;;;0.85;0.70;;;10.20;41.30;;;;;;5082810;28;20525;-71
2023/07/07 03:52:22;;;;;;;3.72;0.82;;;10.30;55.20;;;;;;5082809;28;20044;-71
2023/07/07 03:54:48;;;;;;;0.10;0.10;;;10.30;62.20;;;;;;5082230;28;20052;-71
2023/07/07 03:57:14;;;;;;;0.45;0.45;;;10.30;70.50;;;;;;5082951;28;20118;-71
2023/07/07 03:59:40;;;;;;;0.43;0.43;;;10.40;99.20;;;;;;5082406;28;20093;-71
2023/07/07 04:02:06;;;;;;;0.35;0.30;;;10.40;99.90;;;;;;5079384;28;20552;-71
2023/07/07 04:04:31;;;;;;;1.45;0.95;;;10.40;99.90;;;;;;5081360;28;20044;-71
2023/07/07 04:06:58;;;;;;;0.35;0.35;;;10.50;99.90;;;;;;5081043;28;20058;-71
2023/07/07 04:09:24;;;;;;;0.85;0.85;;;10.60;99.90;;;;;;5081297;28;20064;-71
2023/07/07 04:11:50;;;;;;;1.65;1.30;;;10.60;99.90;;;;;;5081055;28;20112;-71
2023/07/07 04:14:16;;;;;;;1.98;0.90;;;10.70;99.90;;;;;;5080412;28;20062;-71
2023/07/07 04:16:42;;;;;;;1.38;0.85;;;10.70;99.90;;;;;;5080265;28;20516;-71
2023/07/07 04:19:08;;;;;;;1.02;0.88;;;10.80;99.90;;;;;;5080706;28;20287;-71
2023/07/07 04:21:34;;;;;;;0.75;0.50;;;10.80;99.90;;;;;;5079421;28;20044;-71
2023/07/07 04:24:02;;;;;;;0.30;0.30;;;10.90;99.90;;;;;;5080029;28;20063;-71
2023/07/07 04:26:29;;;;;;;0.77;0.65;;;11.00;99.90;;;;;;5080575;28;20079;-70
2023/07/07 04:28:58;;;;;;;0.88;0.80;;;11.10;99.90;;;;;;5080333;28;20067;-71
2023/07/07 04:31:25;;;;;;;0.63;0.63;;;11.20;99.90;;;;;;5080973;28;20055;-71
2023/07/07 04:33:52;;;;;;;1.10;0.68;;;11.40;99.90;;;;;;5080777;28;20467;-71
2023/07/07 04:36:19;;;;;;;2.17;1.33;;;11.50;99.90;;;;;;5081024;28;20058;-71
2023/07/07 04:38:45;;;;;;;0.68;0.47;;;11.60;99.90;;;;;;5080934;28;20593;-71
2023/07/07 04:41:14;;;;;;;0.28;0.20;;;11.80;99.90;;;;;;5084751;28;20063;-71
2023/07/07 04:43:46;;;;;;;0.70;0.70;;;11.90;99.90;;;;;;5085634;28;20410;-71
2023/07/07 04:46:15;;;;;;;1.30;0.93;;;12.10;99.90;;;;;;5085853;28;20506;-72
2023/07/07 04:48:42;;;;;;;2.47;1.10;;;12.30;99.90;;;;;;5086116;28;20036;-72
2023/07/07 04:51:10;;;;;;;4.90;1.70;;;12.60;99.90;;;;;;5085908;28;20050;-72
2023/07/07 04:53:37;;;;;;;0.98;0.82;;;13.10;99.90;;;;;;5086040;28;20040;-72
2023/07/07 04:56:16;;;;;;;0.95;0.70;;;13.80;99.90;;;;;;5086145;28;20040;-72
2023/07/07 04:58:43;;;;;;;0.80;0.80;;;14.80;99.90;;;;;;5084463;28;20182;-71
2023/07/07 05:01:15;;;;;;;0.85;0.45;;;15.60;1.00;;;;;;5083741;28;20066;-72
2023/07/07 05:03:43;;;;;;;1.08;0.98;;;16.30;99.90;;;;;;5083251;28;20044;-72
2023/07/07 05:06:10;;;;;;;2.10;0.85;;;16.90;99.90;;;;;;5084199;28;20040;-72
2023/07/07 05:08:38;;;;;;;5.53;1.08;;;17.50;99.90;;;;;;5083137;28;20070;-72
2023/07/07 05:11:05;;;;;;;2.40;1.70;;;18.10;1.00;;;;;;5082192;28;20122;-72
2023/07/07 05:13:31;;;;;;;4.15;1.33;;;18.60;99.90;;;;;;5082064;28;20048;-72
2023/07/07 05:16:11;;;;;;;1.55;1.45;;;19.00;1.00;;;;;;5081544;28;20047;-72
2023/07/07 05:18:37;;;;;;;3.40;0.60;;;19.50;99.90;;;;;;5075328;28;20051;-72
2023/07/07 05:21:04;;;;;;;0.70;0.47;;;20.00;99.90;;;;;;5081750;28;20043;-72
2023/07/07 05:23:30;;;;;;;2.97;0.88;;;20.40;99.90;;;;;;5081957;28;20044;-71
2023/07/07 05:25:55;;;;;;;1.95;1.00;;;20.70;99.90;;;;;;5081631;28;20055;-72
2023/07/07 05:28:21;;;;;;;0.30;0.30;;;21.20;99.90;;;;;;5080120;28;20534;-72
2023/07/07 05:30:48;;;;;;;0.45;0.38;;;21.70;99.90;;;;;;5080996;28;20600;-72
2023/07/07 05:33:14;;;;;;;0.90;0.85;;;22.30;99.90;;;;;;5081365;28;20137;-72
2023/07/07 05:35:53;;;;;;;0.30;0.30;;;22.80;72.30;;;;;;5081329;28;20048;-72
2023/07/07 05:38:22;;;;;;;3.10;1.48;;;23.00;54.00;;;;;;5081009;28;20481;-72
2023/07/07 05:40:47;;;;;;;0.20;0.15;;;23.40;1.00;;;;;;5079694;28;20128;-71
2023/07/07 05:43:15;;;;;;;0.43;0.43;;;23.40;1.00;;;;;;5079559;28;20044;-72
2023/07/07 05:45:41;;;;;;;0.32;0.32;;;23.70;1.00;;;;;;5079574;28;20052;-72
2023/07/07 05:48:09;;;;;;;2.00;0.93;;;23.80;1.00;;;;;;5079616;28;20048;-72
2023/07/07 05:50:34;;;;;;;0.52;0.43;;;24.00;1.00;;;;;;5079255;28;20090;-72
2023/07/07 05:53:01;;;;;;;0.13;0.13;;;24.00;1.00;;;;;;5079194;28;20075;-72
2023/07/07 05:55:30;;;;;;;0.32;0.32;;;24.10;99.90;;;;;;5079506;28;20056;-72
2023/07/07 05:57:56;;;;;;;0.22;0.22;;;24.40;99.90;;;;;;5078506;28;20547;-72
2023/07/07 06:00:23;;;;;;;0.65;0.55;;;24.30;99.90;;;;;;5061670;28;20499;-72
2023/07/07 06:02:48;;;;;;;2.35;0.95;;;24.30;99.90;;;;;;5068441;28;20045;-72
2023/07/07 06:05:15;;;;;;;0.10;0.10;;;24.60;99.90;;;;;;5069345;28;20037;-72
2023/07/07 06:07:40;;;;;;;0.28;0.13;;;24.60;99.90;;;;;;5070134;28;20043;-72
2023/07/07 06:10:10;;;;;;;2.63;1.30;;;25.00;99.90;;;;;;5076086;28;20048;-73
2023/07/07 06:12:36;;;;;;;0.63;0.40;;;24.90;99.90;;;;;;5080677;28;20453;-72
2023/07/07 06:15:02;;;;;;;0.22;0.22;;;25.10;99.90;;;;;;5080320;28;20088;-73
2023/07/07 06:17:29;;;;;;;0.75;0.52;;;25.30;99.90;;;;;;5080720;28;20399;-73
2023/07/07 06:19:54;;;;;;;0.52;0.40;;;25.80;99.90;;;;;;5080912;28;20402;-73
2023/07/07 06:22:20;;;;;;;1.13;0.50;;;26.10;99.90;;;;;;5080462;28;20040;-72
2023/07/07 06:24:45;;;;;;;1.33;0.47;;;26.10;99.90;;;;;;5079181;28;20036;-72
2023/07/07 06:27:11;;;;;;;0.20;0.20;;;26.40;99.90;;;;;;5079521;28;20063;-72
2023/07/07 06:29:37;;;;;;;1.00;0.70;;;26.40;99.90;;;;;;5080435;28;20036;-72
2023/07/07 06:32:03;;;;;;;1.25;0.80;;;26.40;99.90;;;;;;5080426;28;20256;-72
2023/07/07 06:34:28;;;;;;;1.55;1.00;;;26.60;99.90;;;;;;5080411;28;20298;-72
2023/07/07 06:36:54;;;;;;;0.35;0.35;;;26.90;99.90;;;;;;5080473;28;20394;-72
2023/07/07 06:39:20;;;;;;;1.33;0.60;;;27.00;99.90;;;;;;5080631;28;20040;-72
2023/07/07 06:41:45;;;;;;;0.20;0.20;;;27.00;99.90;;;;;;5079333;28;20144;-72
2023/07/07 06:44:11;;;;;;;0.22;0.22;;;27.20;99.90;;;;;;5080824;28;20577;-72
2023/07/07 06:46:36;;;;;;;0.05;0.05;;;27.20;99.40;;;;;;5080164;28;20048;-72
2023/07/07 06:49:04;;;;;;;0.52;0.40;;;27.30;99.90;;;;;;5080087;28;20040;-72
2023/07/07 06:51:30;;;;;;;0.52;0.47;;;27.70;96.70;;;;;;5080236;28;20040;-73
2023/07/07 06:53:57;;;;;;;0.30;0.30;;;27.90;99.90;;;;;;5080043;28;20173;-72
2023/07/07 06:56:23;;;;;;;0.35;0.13;;;28.40;99.90;;;;;;5080055;28;20535;-73
2023/07/07 06:58:49;;;;;;;0.85;0.70;;;28.90;99.90;;;;;;5080170;28;20119;-73
2023/07/07 07:01:14;;;;;;;2.92;0.45;;;29.30;1.00;;;;;;5080004;28;20079;-73
2023/07/07 07:03:42;;;;;;;0.40;0.30;;;29.20;1.00;;;;;;5079685;28;20044;-73
2023/07/07 07:06:09;;;;;;;1.00;0.38;;;29.30;1.00;;;;;;5080069;28;20168;-73
2023/07/07 07:08:35;;;;;;;0.38;0.38;;;29.60;1.00;;;;;;5080024;28;20051;-73
2023/07/07 07:11:00;;;;;;;0.98;0.52;;;29.70;1.00;;;;;;5079897;28;20481;-73
2023/07/07 07:13:27;;;;;;;0.65;0.45;;;29.80;1.00;;;;;;5080916;28;20131;-73
2023/07/07 07:15:53;;;;;;;0.03;0.03;;;30.10;99.90;;;;;;5082583;28;20046;-73
2023/07/07 07:18:18;;;;;;;0.52;0.38;;;29.90;99.90;;;;;;5082147;28;20048;-72
2023/07/07 07:20:48;;;;;;;2.80;0.80;;;29.60;99.90;;;;;;5082156;28;20042;-73
2023/07/07 07:23:13;;;;;;;1.45;0.73;;;29.50;99.90;;;;;;5082371;28;20541;-73
2023/07/07 07:25:39;;;;;;;4.90;0.88;;;29.50;99.90;;;;;;5082207;28;20127;-73
2023/07/07 07:28:05;;;;;;;0.52;0.25;;;29.50;99.90;;;;;;5082290;28;20047;-73
2023/07/07 07:30:30;;;;;;;0.63;0.15;;;29.30;99.90;;;;;;5082386;28;20118;-73
2023/07/07 07:32:57;;;;;;;0.15;0.05;;;29.20;99.90;;;;;;5081909;28;20044;-73
2023/07/07 07:35:23;;;;;;;0.17;0.17;;;29.30;99.90;;;;;;5082063;28;20084;-73
2023/07/07 07:37:49;;;;;;;0.10;0.10;;;29.20;99.90;;;;;;5081556;28;20081;-73
2023/07/07 07:40:14;;;;;;;0.08;0.08;;;29.70;99.90;;;;;;5081905;28;20460;-73
2023/07/07 07:42:40;;;;;;;0.20;0.20;;;29.90;99.90;;;;;;5081773;28;20052;-73
2023/07/07 07:45:07;;;;;;;0.22;0.20;;;30.20;99.90;;;;;;5082180;28;20048;-72
2023/07/07 07:47:34;;;;;;;0.43;0.43;;;30.70;99.90;;;;;;5082351;28;20048;-73
2023/07/07 07:49:59;;;;;;;0.10;0.03;;;31.00;99.90;;;;;;5082457;28;20054;-73
2023/07/07 07:52:25;;;;;;;0.75;0.55;;;31.20;99.90;;;;;;5082000;28;20526;-73
2023/07/07 07:54:52;;;;;;;0.30;0.25;;;31.40;99.90;;;;;;5082184;28;20082;-73
2023/07/07 07:57:17;;;;;;;1.65;0.25;;;31.80;99.90;;;;;;5082202;28;20048;-73
2023/07/07 07:59:43;;;;;;;0.00;0.00;;;31.70;99.90;;;;;;5082591;28;20090;-73
2023/07/07 08:02:11;;;;;;;0.50;0.45;;;31.50;99.90;;;;;;5082152;28;20051;-73
2023/07/07 08:04:37;;;;;;;1.08;0.17;;;31.70;99.90;;;;;;5082043;28;20052;-73
2023/07/07 08:07:03;;;;;;;0.00;0.00;;;31.70;99.90;;;;;;5081990;28;20051;-73
2023/07/07 08:09:29;;;;;;;1.33;0.70;;;31.90;99.90;;;;;;5082517;28;20040;-73
2023/07/07 08:11:58;;;;;;;0.20;0.13;;;32.30;99.90;;;;;;5082322;28;20058;-73
2023/07/07 08:14:30;;;;;;;0.38;0.38;;;32.60;99.90;;;;;;5085222;28;20058;-73
2023/07/07 08:16:58;;;;;;;0.20;0.10;;;32.80;99.90;;;;;;5086478;28;20039;-73
2023/07/07 08:19:24;;;;;;;0.82;0.50;;;32.80;99.90;;;;;;5086019;28;20540;-73
2023/07/07 08:21:50;;;;;;;0.17;0.15;;;33.20;99.90;;;;;;5086372;28;20400;-73
2023/07/07 08:24:16;;;;;;;0.17;0.13;;;33.40;99.90;;;;;;5086187;28;20036;-72
2023/07/07 08:26:42;;;;;;;1.50;0.85;;;33.20;99.90;;;;;;5085878;28;20498;-73
2023/07/07 08:29:09;;;;;;;0.52;0.43;;;33.10;95.20;;;;;;5085774;28;20169;-73
2023/07/07 08:31:35;;;;;;;0.30;0.30;;;33.30;92.90;;;;;;5086032;28;20403;-73
2023/07/07 08:34:02;;;;;;;2.40;0.50;;;32.60;42.30;;;;;;5085449;28;20107;-73
2023/07/07 08:36:28;;;;;;;3.65;0.30;;;32.40;12.40;;;;;;5085889;28;20044;-73
2023/07/07 08:38:55;;;;;;;0.20;0.20;;;32.40;15.70;;;;;;5085678;28;20083;-73
2023/07/07 08:41:21;;;;;;;0.15;0.15;;;32.50;1.00;;;;;;5085397;28;20071;-73
2023/07/07 08:43:47;;;;;;;0.28;0.13;;;32.40;1.00;;;;;;5085701;28;20040;-74
2023/07/07 08:46:28;;;;;;;0.05;0.05;;;32.20;1.00;;;;;;5085618;28;20079;-73
2023/07/07 08:49:04;;;;;;;0.40;0.30;;;33.00;1.00;;;;;;5088390;28;20052;-73
2023/07/07 08:51:39;;;;;;;0.03;0.03;;;33.20;1.00;;;;;;5088115;28;20520;-73
2023/07/07 08:54:19;;;;;;;0.68;0.57;;;33.40;1.00;;;;;;5088034;28;20494;-73
2023/07/07 08:56:59;;;;;;;0.00;0.00;;;32.70;1.00;;;;;;5085235;28;20052;-73
2023/07/07 08:59:45;;;;;;;0.00;0.00;;;32.80;1.00;;;;;;5085723;28;20119;-72
2023/07/07 09:02:20;;;;;;;1.88;0.20;;;31.90;1.00;;;;;;5085700;28;20101;-72
2023/07/07 09:05:12;;;;;;;0.00;0.00;;;32.70;1.00;;;;;;5085263;28;20444;-74
2023/07/07 09:08:05;;;;;;;1.45;0.47;;;33.00;1.00;;;;;;5084957;28;20056;-75
2023/07/07 09:10:37;;;;;;;0.55;0.43;;;33.40;1.00;;;;;;5085561;28;20583;-75
2023/07/07 09:13:06;;;;;;;0.25;0.20;;;33.00;99.90;;;;;;5085704;28;20457;-74
2023/07/07 09:15:38;;;;;;;0.10;0.10;;;33.10;99.90;;;;;;5082645;28;20122;-75
2023/07/07 09:18:25;;;;;;;0.00;0.00;;;33.50;99.90;;;;;;5071720;28;20079;-73
2023/07/07 09:20:57;;;;;;;0.10;0.05;;;33.70;99.90;;;;;;5067326;28;20600;-73
2023/07/07 09:23:28;;;;;;;0.55;0.20;;;34.30;1.00;;;;;;5067046;28;20174;-73
2023/07/07 09:26:26;;;;;;;0.15;0.10;;;34.50;99.90;;;;;;5070324;28;20124;-73
2023/07/07 09:28:55;;;;;;;0.08;0.03;;;34.70;1.00;;;;;;5081755;28;20052;-73
2023/07/07 09:31:41;;;;;;;0.10;0.10;;;34.90;99.90;;;;;;5072926;28;20060;-73
2023/07/07 09:34:13;;;;;;;0.25;0.08;;;34.60;99.90;;;;;;5066640;28;20052;-73
2023/07/07 09:36:41;;;;;;;0.73;0.52;;;34.40;99.90;;;;;;5072941;28;20062;-73
2023/07/07 09:39:07;;;;;;;0.25;0.10;;;34.60;99.90;;;;;;5070227;28;20063;-74
2023/07/07 09:41:33;;;;;;;0.40;0.22;;;34.90;99.90;;;;;;5068967;28;20056;-73
2023/07/07 09:44:23;;;;;;;0.85;0.47;;;33.40;99.90;;;;;;5068425;28;20510;-74
2023/07/07 09:47:05;;;;;;;2.17;0.60;;;33.40;99.90;;;;;;5067502;28;20507;-73
2023/07/07 09:49:43;;;;;;;0.70;0.22;;;33.10;99.90;;;;;;5070901;28;20044;-73
2023/07/07 09:52:28;;;;;;;0.00;0.00;;;33.30;99.90;;;;;;5065309;28;20045;-73
2023/07/07 09:54:57;;;;;;;0.15;0.15;;;33.60;99.90;;;;;;5072865;28;20088;-73
2023/07/07 09:57:38;;;;;;;0.52;0.25;;;33.70;99.90;;;;;;5062724;28;20419;-73
2023/07/07 10:00:05;;;;;;;0.30;0.28;;;33.40;99.90;;;;;;5065112;28;20040;-73
2023/07/07 10:02:32;;;;;;;0.22;0.22;;;32.90;99.90;;;;;;5063517;28;20088;-73
2023/07/07 10:05:02;;;;;;;0.32;0.32;;;32.30;99.90;;;;;;5069386;28;20316;-73
2023/07/07 10:07:40;;;;;;;0.35;0.22;;;32.30;99.90;;;;;;5075609;28;20047;-73
2023/07/07 10:10:10;;;;;;;0.00;0.00;;;32.00;99.90;;;;;;5070933;28;20052;-73
2023/07/07 10:12:36;;;;;;;0.20;0.13;;;31.70;99.90;;;;;;5072461;28;20055;-73
2023/07/07 10:15:30;;;;;;;0.70;0.43;;;31.70;99.90;;;;;;5070898;28;20126;-73
2023/07/07 10:18:10;;;;;;;0.50;0.40;;;31.40;99.90;;;;;;5062809;28;20055;-73
2023/07/07 10:20:36;;;;;;;1.13;0.38;;;30.30;99.90;;;;;;5068692;28;20055;-73
2023/07/07 10:23:01;;;;;;;0.13;0.13;;;30.20;99.90;;;;;;5067482;28;20044;-73
2023/07/07 10:25:30;;;;;;;0.20;0.20;;;30.20;99.90;;;;;;5068719;28;20047;-73
2023/07/07 10:27:56;;;;;;;0.10;0.10;;;29.50;99.90;;;;;;5069121;28;20066;-72
2023/07/07 10:30:22;;;;;;;0.00;0.00;;;29.60;99.90;;;;;;5063806;28;20253;-73
2023/07/07 10:32:48;;;;;;;0.10;0.10;;;29.50;99.90;;;;;;5061373;28;20821;-73
2023/07/07 10:35:19;;;;;;;1.20;0.17;;;29.70;99.90;;;;;;5060019;28;20410;-73
2023/07/07 10:37:46;;;;;;;0.73;0.20;;;29.30;99.90;;;;;;5059370;28;20047;-72
2023/07/07 10:40:21;;;;;;;0.20;0.10;;;29.40;99.90;;;;;;5059783;28;20140;-73
2023/07/07 10:42:52;;;;;;;0.10;0.10;;;29.70;99.90;;;;;;5058515;28;20240;-73
2023/07/07 10:45:18;;;;;;;1.35;0.47;;;29.80;99.90;;;;;;5058483;28;20474;-73
2023/07/07 10:47:43;;;;;;;2.10;1.00;;;30.00;99.90;;;;;;5059858;28;20824;-73
2023/07/07 10:50:16;;;;;;;0.10;0.10;;;29.40;99.90;;;;;;5060203;28;20562;-72
2023/07/07 10:53:11;;;;;;;0.10;0.10;;;29.00;99.90;;;;;;5067688;28;20048;-73
2023/07/07 10:55:43;;;;;;;;;;;29.30;99.90;;;;;;5079608;28;20079;-73
2023/07/07 10:58:44;;;;;;;1.45;0.30;;;29.00;99.90;;;;;;5080387;28;20364;-73
2023/07/07 11:01:41;;;;;;;0.20;0.20;;;28.90;99.90;;;;;;4997394;28;20528;-73
2023/07/07 11:05:15;;;;;;;0.03;0.03;;;28.90;99.90;;;;;;5071244;28;20066;-73
2023/07/07 11:08:20;;;;;;;0.05;0.03;;;29.70;99.90;;;;;;4990081;28;20054;-73
2023/07/07 11:10:54;;;;;;;0.05;0.05;;;29.80;99.90;;;;;;5002169;28;20112;-74
2023/07/07 11:13:37;;;;;;;0.10;0.10;;;28.80;99.90;;;;;;5083227;28;20412;-74
2023/07/07 11:16:41;;;;;;;1.40;0.65;;;28.90;99.90;;;;;;5080097;28;20055;-74
2023/07/07 11:19:22;;;;;;;0.10;0.10;;;29.00;99.90;;;;;;5080559;28;20046;-74
2023/07/07 11:22:01;;;;;;;0.30;0.20;;;29.00;99.90;;;;;;5080405;28;20130;-74
2023/07/07 11:24:41;;;;;;;0.20;0.20;;;29.00;99.90;;;;;;5079058;28;20056;-74
2023/07/07 11:27:16;;;;;;;0.20;0.13;;;29.00;99.90;;;;;;5079161;28;20498;-74
2023/07/07 11:30:00;;;;;;;0.90;0.25;;;29.60;99.90;;;;;;5079072;28;20039;-74
2023/07/07 11:33:01;;;;;;;0.10;0.10;;;29.40;99.90;;;;;;5079880;28;20506;-74
2023/07/07 11:36:09;;;;;;;0.13;0.10;;;30.10;99.90;;;;;;5078687;28;20451;-74
2023/07/07 11:38:49;;;;;;;1.52;0.88;;;31.10;99.90;;;;;;5084285;28;20051;-73
2023/07/07 11:41:33;;;;;;;0.63;0.55;;;31.00;99.90;;;;;;5100387;28;20055;-73
2023/07/07 11:44:32;;;;;;;0.25;0.25;;;31.00;99.90;;;;;;5100260;28;20052;-73
2023/07/07 11:47:14;;;;;;;0.65;0.60;;;31.60;99.90;;;;;;5093173;28;20066;-73
2023/07/07 11:50:03;;;;;;;0.00;0.00;;;31.90;99.90;;;;;;5069828;28;20051;-71
2023/07/07 11:52:39;;;;;;;0.38;0.22;;;32.20;99.90;;;;;;5058555;28;20040;-70
2023/07/07 11:55:17;;;;;;;0.10;0.10;;;31.80;99.90;;;;;;5058776;28;20052;-73
2023/07/07 11:57:54;;;;;;;7.80;0.75;;;31.90;99.90;;;;;;5058810;28;20490;-73
2023/07/07 12:00:43;;;;;;;0.00;0.00;;;32.10;99.90;;;;;;5058857;28;20048;-73
2023/07/07 12:03:27;;;;;;;0.20;0.20;;;32.70;99.90;;;;;;5067847;28;20048;-73
2023/07/07 12:05:55;;;;;;;0.17;0.17;;;33.00;99.90;;;;;;5071877;28;20213;-73
2023/07/07 12:08:29;;;;;;;0.80;0.17;;;32.50;99.90;;;;;;5079007;28;20461;-73
2023/07/07 12:10:57;;;;;;;0.00;0.00;;;32.30;99.90;;;;;;5079141;28;20055;-73
2023/07/07 12:13:31;;;;;;;1.45;0.65;;;32.10;99.90;;;;;;5079583;28;20047;-73
2023/07/07 12:16:02;;;;;;;0.03;0.03;;;32.50;99.90;;;;;;5079418;28;20059;-73
2023/07/07 12:18:36;;;;;;;0.32;0.30;;;33.00;99.90;;;;;;5061433;28;20051;-73
2023/07/07 12:21:16;;;;;;;1.13;0.45;;;33.20;99.90;;;;;;5079245;28;20040;-73
2023/07/07 12:23:59;;;;;;;0.10;0.10;;;32.70;99.90;;;;;;5079244;28;20417;-73
2023/07/07 12:26:33;;;;;;;0.57;0.43;;;32.70;99.90;;;;;;5079403;28;20121;-73
2023/07/07 12:29:01;;;;;;;0.28;0.28;;;32.10;99.90;;;;;;5079100;28;20470;-73
2023/07/07 12:31:28;;;;;;;0.15;0.10;;;32.10;99.90;;;;;;5079440;28;20386;-73
2023/07/07 12:33:54;;;;;;;0.52;0.43;;;31.80;99.90;;;;;;5078977;28;20585;-73
2023/07/07 12:36:31;;;;;;;0.00;0.00;;;31.80;99.90;;;;;;5079175;28;20138;-73
2023/07/07 12:39:00;;;;;;;0.00;0.00;;;32.10;99.90;;;;;;5078659;28;20164;-73
2023/07/07 12:41:28;;;;;;;0.85;0.17;;;32.30;99.90;;;;;;5079201;28;20043;-73
2023/07/07 12:44:04;;;;;;;1.13;0.85;;;32.20;99.90;;;;;;5078721;28;20047;-73
2023/07/07 12:46:33;;;;;;;0.95;0.45;;;32.90;99.90;;;;;;5080358;28;20048;-72
2023/07/07 12:49:06;;;;;;;0.95;0.73;;;32.80;99.90;;;;;;5081479;28;20050;-72
2023/07/07 12:51:35;;;;;;;0.03;0.03;;;32.40;99.90;;;;;;5081005;28;20048;-72
2023/07/07 12:54:01;;;;;;;0.17;0.17;;;31.90;99.90;;;;;;5080012;28;20591;-72
2023/07/07 12:56:29;;;;;;;0.25;0.25;;;31.90;99.90;;;;;;5081155;28;20044;-72
2023/07/07 12:58:59;;;;;;;0.32;0.28;;;32.00;99.90;;;;;;5081037;28;20498;-72
2023/07/07 13:01:39;;;;;;;1.45;0.75;;;33.20;99.90;;;;;;5084616;28;20044;-72
2023/07/07 13:04:07;;;;;;;0.32;0.20;;;34.70;99.90;;;;;;5084199;28;20498;-72
2023/07/07 13:06:40;;;;;;;0.90;0.63;;;34.60;99.90;;;;;;5085168;28;20047;-72
2023/07/07 13:09:12;;;;;;;0.52;0.13;;;34.30;99.90;;;;;;5084870;28;20059;-70